< < Back
Terminal Aerodrome Forecast


Current Version              Previous Versions:   1  2  3  4  5  6  7  8  9  

Terminal Aerodrome Forecast

452
FTUS42 KJAX 261523 AAC
TAFSSI
TAF AMD
KSSI 261523Z 2615/2712 28005KT P6SM VCTS SCT050CB BKN250
      TEMPO 2615/2616 VRB10G25KT 1SM TSRA BKN035CB
     FM261600 VRB10KT P6SM VCTS SCT030CB BKN050
      TEMPO 2616/2617 3SM TSRA BKN035CB
     FM262000 05012KT P6SM SCT040 BKN250
     FM262200 08008KT P6SM BKN250=

Latest METAR

190
SAUS70 KWBC 261900 RRJ
MTRSSI
METAR KSSI 261853Z AUTO 31005KT 10SM CLR 26/23 A3010 RMK AO2 SLP195
T02610228


USA.gov is the U.S. government's official web portal to all federal, state and local government web resources and services.